createdAt,value
2018-10-09T00:00:52.039Z,1009.71
2018-10-09T00:01:51.957Z,1009.73
2018-10-09T00:02:51.963Z,1009.74
2018-10-09T00:03:51.934Z,1009.76
2018-10-09T00:04:51.930Z,1009.70
2018-10-09T00:05:51.912Z,1009.79
2018-10-09T00:06:51.901Z,1009.81
2018-10-09T00:07:51.889Z,1009.80
2018-10-09T00:08:51.892Z,1009.82
2018-10-09T00:09:51.868Z,1009.80
2018-10-09T00:10:51.856Z,1009.83
2018-10-09T00:11:51.848Z,1009.81
2018-10-09T00:12:51.837Z,1009.80
2018-10-09T00:13:51.837Z,1009.74
2018-10-09T00:14:51.812Z,1009.73
2018-10-09T00:15:51.801Z,1009.67
2018-10-09T00:16:51.790Z,1009.60
2018-10-09T00:17:51.780Z,1009.64
2018-10-09T00:18:51.781Z,1009.62
2018-10-09T00:19:51.755Z,1009.62
2018-10-09T00:20:51.746Z,1009.65
2018-10-09T00:21:51.735Z,1009.62
2018-10-09T00:22:51.723Z,1009.64
2018-10-09T00:23:51.725Z,1009.67
2018-10-09T00:24:51.701Z,1009.66
2018-10-09T00:25:51.718Z,1009.65
2018-10-09T00:26:51.678Z,1009.57
2018-10-09T00:27:51.667Z,1009.56
2018-10-09T00:28:51.671Z,1009.51
2018-10-09T00:29:51.645Z,1009.50
2018-10-09T00:30:51.633Z,1009.48
2018-10-09T00:31:51.622Z,1009.50
2018-10-09T00:32:51.609Z,1009.51
2018-10-09T00:33:51.614Z,1009.52
2018-10-09T00:34:51.590Z,1009.50
2018-10-09T00:35:51.577Z,1009.50
2018-10-09T00:36:51.567Z,1009.51
2018-10-09T00:37:51.556Z,1009.50
2018-10-09T00:38:51.557Z,1009.49
2018-10-09T00:39:51.585Z,1009.49
2018-10-09T00:40:51.522Z,1009.48
2018-10-09T00:41:51.510Z,1009.49
2018-10-09T00:42:51.500Z,1009.46
2018-10-09T00:43:51.504Z,1009.43
2018-10-09T00:44:51.477Z,1009.45
2018-10-09T00:45:51.465Z,1009.48
2018-10-09T00:46:51.454Z,1009.44
2018-10-09T00:47:51.445Z,1009.43
2018-10-09T00:48:51.447Z,1009.46
2018-10-09T00:49:51.421Z,1009.45
2018-10-09T00:50:51.411Z,1009.50
2018-10-09T00:51:51.401Z,1009.49
2018-10-09T00:52:51.389Z,1009.51
2018-10-09T00:53:51.390Z,1009.52
2018-10-09T00:54:51.366Z,1009.54
2018-10-09T00:55:51.356Z,1009.56
2018-10-09T00:56:51.344Z,1009.54
2018-10-09T00:57:51.335Z,1009.58
2018-10-09T00:58:51.334Z,1009.56
2018-10-09T00:59:51.310Z,1009.55
2018-10-09T01:00:51.298Z,1009.59
2018-10-09T01:01:51.289Z,1009.61
2018-10-09T01:02:51.279Z,1009.65
2018-10-09T01:03:51.279Z,1009.68
2018-10-09T01:04:51.256Z,1009.70
2018-10-09T01:05:51.245Z,1009.71
2018-10-09T01:06:51.232Z,1009.77
2018-10-09T01:07:51.223Z,1009.79
2018-10-09T01:08:51.226Z,1009.76
2018-10-09T01:09:51.201Z,1009.73
2018-10-09T01:10:51.188Z,1009.76
2018-10-09T01:11:51.176Z,1009.72
2018-10-09T01:12:51.165Z,1009.74
2018-10-09T01:13:51.169Z,1009.78
2018-10-09T01:14:51.144Z,1009.73
2018-10-09T01:15:51.135Z,1009.73
2018-10-09T01:16:51.122Z,1009.72
2018-10-09T01:17:51.109Z,1009.66
2018-10-09T01:18:51.117Z,1009.70
2018-10-09T01:19:51.086Z,1009.67
2018-10-09T01:20:51.076Z,1009.69
2018-10-09T01:21:51.096Z,1009.67
2018-10-09T01:22:51.055Z,1009.70
2018-10-09T01:23:51.049Z,1009.72
2018-10-09T01:24:51.051Z,1009.72
2018-10-09T01:25:51.022Z,1009.72
2018-10-09T01:26:51.011Z,1009.75
2018-10-09T01:27:50.998Z,1009.72
2018-10-09T01:28:50.988Z,1009.78
2018-10-09T01:29:50.991Z,1009.81
2018-10-09T01:30:50.966Z,1009.81
2018-10-09T01:31:50.956Z,1009.78
2018-10-09T01:32:50.948Z,1009.76
2018-10-09T01:33:50.933Z,1009.79
2018-10-09T01:34:50.940Z,1009.80
2018-10-09T01:35:50.912Z,1009.79
2018-10-09T01:36:50.900Z,1009.80
2018-10-09T01:37:50.888Z,1009.78
2018-10-09T01:38:50.874Z,1009.78
2018-10-09T01:39:50.883Z,1009.77
2018-10-09T01:40:50.853Z,1009.74
2018-10-09T01:41:50.841Z,1009.76
2018-10-09T01:42:50.834Z,1009.79
2018-10-09T01:43:50.820Z,1009.79
2018-10-09T01:44:50.822Z,1009.80
2018-10-09T01:45:50.798Z,1009.75
2018-10-09T01:46:50.787Z,1009.76
2018-10-09T01:47:50.774Z,1009.79
2018-10-09T01:48:50.765Z,1009.82
2018-10-09T01:49:50.772Z,1009.79
2018-10-09T01:50:50.742Z,1009.79
2018-10-09T01:51:50.731Z,1009.73
2018-10-09T01:52:50.719Z,1009.81
2018-10-09T01:53:50.711Z,1009.80
2018-10-09T01:54:50.710Z,1009.78
2018-10-09T01:55:50.686Z,1009.75
2018-10-09T01:56:50.677Z,1009.73
2018-10-09T01:57:50.663Z,1009.76
2018-10-09T01:58:50.655Z,1009.77
2018-10-09T01:59:50.657Z,1009.78
2018-10-09T02:00:50.630Z,1009.78
2018-10-09T02:01:50.621Z,1009.77
2018-10-09T02:02:50.609Z,1009.74
2018-10-09T02:03:50.601Z,1009.72
2018-10-09T02:04:50.599Z,1009.68
2018-10-09T02:05:50.578Z,1009.75
2018-10-09T02:06:50.564Z,1009.73
2018-10-09T02:07:50.551Z,1009.68
2018-10-09T02:08:50.541Z,1009.70
2018-10-09T02:09:50.544Z,1009.67
2018-10-09T02:10:50.521Z,1009.70
2018-10-09T02:11:50.508Z,1009.63
2018-10-09T02:12:50.499Z,1009.61
2018-10-09T02:13:50.486Z,1009.54
2018-10-09T02:14:50.490Z,1009.57
2018-10-09T02:15:50.466Z,1009.55
2018-10-09T02:16:50.453Z,1009.61
2018-10-09T02:17:50.442Z,1009.58
2018-10-09T02:18:50.430Z,1009.65
2018-10-09T02:19:50.434Z,1009.61
2018-10-09T02:20:50.408Z,1009.56
2018-10-09T02:21:50.400Z,1009.59
2018-10-09T02:22:50.386Z,1009.55
2018-10-09T02:23:50.375Z,1009.59
2018-10-09T02:24:50.378Z,1009.49
2018-10-09T02:25:50.351Z,1009.48
2018-10-09T02:26:50.342Z,1009.51
2018-10-09T02:27:50.332Z,1009.50
2018-10-09T02:28:50.323Z,1009.47
2018-10-09T02:29:50.322Z,1009.52
2018-10-09T02:30:50.297Z,1009.47
2018-10-09T02:31:50.288Z,1009.52
2018-10-09T02:32:50.277Z,1009.49
2018-10-09T02:33:50.265Z,1009.47
2018-10-09T02:34:50.284Z,1009.51
2018-10-09T02:35:50.244Z,1009.50
2018-10-09T02:36:50.232Z,1009.49
2018-10-09T02:37:50.218Z,1009.49
2018-10-09T02:38:50.208Z,1009.46
2018-10-09T02:39:50.197Z,1009.47
2018-10-09T02:40:50.199Z,1009.43
2018-10-09T02:41:50.174Z,1009.45
2018-10-09T02:42:50.163Z,1009.43
2018-10-09T02:43:50.160Z,1009.41
2018-10-09T02:44:50.144Z,1009.40
2018-10-09T02:45:50.143Z,1009.36
2018-10-09T02:46:50.120Z,1009.38
2018-10-09T02:47:50.108Z,1009.31
2018-10-09T02:48:50.098Z,1009.34
2018-10-09T02:49:50.090Z,1009.34
2018-10-09T02:50:50.093Z,1009.34
2018-10-09T02:51:50.063Z,1009.36
2018-10-09T02:52:50.053Z,1009.36
2018-10-09T02:53:50.041Z,1009.36
2018-10-09T02:54:50.032Z,1009.30
2018-10-09T02:55:50.035Z,1009.29
2018-10-09T02:56:50.011Z,1009.29
2018-10-09T02:57:49.998Z,1009.28
2018-10-09T02:58:49.985Z,1009.32
2018-10-09T02:59:49.973Z,1009.28
2018-10-09T03:00:49.978Z,1009.30
2018-10-09T03:01:49.952Z,1009.30
2018-10-09T03:02:49.942Z,1009.29
2018-10-09T03:03:49.928Z,1009.27
2018-10-09T03:04:49.919Z,1009.20
2018-10-09T03:05:49.921Z,1009.22
2018-10-09T03:06:49.895Z,1009.20
2018-10-09T03:07:49.884Z,1009.29
2018-10-09T03:08:49.875Z,1009.28
2018-10-09T03:09:49.865Z,1009.23
2018-10-09T03:10:49.869Z,1009.25
2018-10-09T03:11:49.840Z,1009.25
2018-10-09T03:12:49.841Z,1009.17
2018-10-09T03:13:49.818Z,1009.12
2018-10-09T03:14:49.809Z,1009.07
2018-10-09T03:15:49.804Z,1009.05
2018-10-09T03:16:49.785Z,1009.00
2018-10-09T03:17:49.776Z,1009.02
2018-10-09T03:18:49.760Z,1009.02
2018-10-09T03:19:49.754Z,1009.06
2018-10-09T03:20:49.855Z,1009.07
2018-10-09T03:21:49.729Z,1009.02
2018-10-09T03:22:49.717Z,1009.00
2018-10-09T03:23:49.707Z,1009.00
2018-10-09T03:24:49.693Z,1009.01
2018-10-09T03:25:49.696Z,1008.99
2018-10-09T03:26:49.675Z,1009.01
2018-10-09T03:27:49.664Z,1009.00
2018-10-09T03:28:49.651Z,1009.02
2018-10-09T03:29:49.645Z,1009.04
2018-10-09T03:30:49.644Z,1009.01
2018-10-09T03:31:49.618Z,1009.01
2018-10-09T03:32:49.609Z,1009.03
2018-10-09T03:33:49.598Z,1009.04
2018-10-09T03:34:49.585Z,1009.05
2018-10-09T03:35:49.591Z,1009.01
2018-10-09T03:36:49.562Z,1008.97
2018-10-09T03:37:49.551Z,1009.02
2018-10-09T03:38:49.550Z,1009.02
2018-10-09T03:39:49.528Z,1009.01
2018-10-09T03:40:49.531Z,1009.05
2018-10-09T03:41:49.508Z,1008.99
2018-10-09T03:42:49.496Z,1009.01
2018-10-09T03:43:49.484Z,1008.99
2018-10-09T03:44:49.473Z,1008.97
2018-10-09T03:45:49.492Z,1009.00
2018-10-09T03:46:49.450Z,1009.00
2018-10-09T03:47:49.444Z,1009.01
2018-10-09T03:48:49.429Z,1009.05
2018-10-09T03:49:49.416Z,1009.05
2018-10-09T03:50:49.413Z,1009.05
2018-10-09T03:51:49.413Z,1009.09
2018-10-09T03:52:49.387Z,1009.05
2018-10-09T03:53:49.372Z,1009.05
2018-10-09T03:54:49.361Z,1009.04
2018-10-09T03:55:49.350Z,1009.05
2018-10-09T03:56:49.352Z,1009.03
2018-10-09T03:57:49.327Z,1009.04
2018-10-09T03:58:49.316Z,1009.04
2018-10-09T03:59:49.304Z,1008.99
2018-10-09T04:00:49.294Z,1009.05
2018-10-09T04:01:49.297Z,1009.08
2018-10-09T04:02:49.273Z,1009.06
2018-10-09T04:03:49.261Z,1009.10
2018-10-09T04:04:49.248Z,1009.07
2018-10-09T04:05:49.239Z,1009.12
2018-10-09T04:06:49.243Z,1009.13
2018-10-09T04:07:49.221Z,1009.12
2018-10-09T04:08:49.206Z,1009.20
2018-10-09T04:09:49.195Z,1009.16
2018-10-09T04:10:49.182Z,1009.19
2018-10-09T04:11:49.187Z,1009.20
2018-10-09T04:12:49.208Z,1009.18
2018-10-09T04:13:49.149Z,1009.15
2018-10-09T04:14:49.139Z,1009.18
2018-10-09T04:15:49.127Z,1009.18
2018-10-09T04:16:49.129Z,1009.18
2018-10-09T04:17:49.105Z,1009.16
2018-10-09T04:18:49.092Z,1009.12
2018-10-09T04:19:49.085Z,1009.14
2018-10-09T04:20:49.071Z,1009.18
2018-10-09T04:21:49.078Z,1009.21
2018-10-09T04:22:49.048Z,1009.14
2018-10-09T04:23:49.038Z,1009.18
2018-10-09T04:24:49.023Z,1009.19
2018-10-09T04:25:49.015Z,1009.20
2018-10-09T04:26:49.021Z,1009.19
2018-10-09T04:27:48.994Z,1009.17
2018-10-09T04:28:48.982Z,1009.18
2018-10-09T04:29:48.972Z,1009.15
2018-10-09T04:30:48.962Z,1009.14
2018-10-09T04:31:48.960Z,1009.17
2018-10-09T04:32:48.939Z,1009.14
2018-10-09T04:33:48.930Z,1009.16
2018-10-09T04:34:48.915Z,1009.19
2018-10-09T04:35:48.905Z,1009.19
2018-10-09T04:36:48.909Z,1009.17
2018-10-09T04:37:48.882Z,1009.22
2018-10-09T04:38:48.873Z,1009.22
2018-10-09T04:39:48.861Z,1009.24
2018-10-09T04:40:48.852Z,1009.23
2018-10-09T04:41:48.851Z,1009.29
2018-10-09T04:42:48.827Z,1009.25
2018-10-09T04:43:48.815Z,1009.28
2018-10-09T04:44:48.804Z,1009.32
2018-10-09T04:45:48.793Z,1009.33
2018-10-09T04:46:48.801Z,1009.34
2018-10-09T04:47:48.769Z,1009.34
2018-10-09T04:48:48.792Z,1009.38
2018-10-09T04:49:48.749Z,1009.37
2018-10-09T04:50:48.736Z,1009.34
2018-10-09T04:51:48.746Z,1009.34
2018-10-09T04:52:48.721Z,1009.35
2018-10-09T04:53:48.707Z,1009.33
2018-10-09T04:54:48.705Z,1009.34
2018-10-09T04:55:48.683Z,1009.33
2018-10-09T04:56:48.686Z,1009.36
2018-10-09T04:57:48.659Z,1009.33
2018-10-09T04:58:48.647Z,1009.37
2018-10-09T04:59:48.639Z,1009.36
2018-10-09T05:00:48.681Z,1009.35
2018-10-09T05:01:48.646Z,1009.39
2018-10-09T05:02:48.604Z,1009.36
2018-10-09T05:03:48.592Z,1009.39
2018-10-09T05:04:48.584Z,1009.38
2018-10-09T05:05:48.572Z,1009.39
2018-10-09T05:06:48.556Z,1009.44
2018-10-09T05:07:48.563Z,1009.39
2018-10-09T05:08:48.540Z,1009.40
2018-10-09T05:09:48.530Z,1009.40
2018-10-09T05:10:48.516Z,1009.37
2018-10-09T05:11:48.513Z,1009.39
2018-10-09T05:12:48.509Z,1009.36
2018-10-09T05:13:48.481Z,1009.32
2018-10-09T05:14:48.469Z,1009.27
2018-10-09T05:15:48.458Z,1009.29
2018-10-09T05:16:48.449Z,1009.28
2018-10-09T05:17:48.521Z,1009.30
2018-10-09T05:18:48.427Z,1009.30
2018-10-09T05:19:48.418Z,1009.28
2018-10-09T05:20:48.402Z,1009.34
2018-10-09T05:21:48.392Z,1009.34
2018-10-09T05:22:48.395Z,1009.34
2018-10-09T05:23:48.371Z,1009.35
2018-10-09T05:24:48.360Z,1009.36
2018-10-09T05:25:48.347Z,1009.38
2018-10-09T05:26:48.335Z,1009.40
2018-10-09T05:27:48.340Z,1009.39
2018-10-09T05:28:48.313Z,1009.38
2018-10-09T05:29:48.302Z,1009.38
2018-10-09T05:30:48.291Z,1009.37
2018-10-09T05:31:48.279Z,1009.40
2018-10-09T05:32:48.284Z,1009.41
2018-10-09T05:33:48.259Z,1009.39
2018-10-09T05:34:48.247Z,1009.40
2018-10-09T05:35:48.235Z,1009.42
2018-10-09T05:36:48.227Z,1009.43
2018-10-09T05:37:48.257Z,1009.41
2018-10-09T05:38:48.202Z,1009.42
2018-10-09T05:39:48.195Z,1009.41
2018-10-09T05:40:48.181Z,1009.41
2018-10-09T05:41:48.169Z,1009.45
2018-10-09T05:42:48.181Z,1009.44
2018-10-09T05:43:48.151Z,1009.50
2018-10-09T05:44:48.196Z,1009.45
2018-10-09T05:45:48.123Z,1009.48
2018-10-09T05:46:48.115Z,1009.51
2018-10-09T05:47:48.133Z,1009.57
2018-10-09T05:48:48.092Z,1009.60
2018-10-09T05:49:48.081Z,1009.60
2018-10-09T05:50:48.069Z,1009.61
2018-10-09T05:51:48.057Z,1009.59
2018-10-09T05:52:48.057Z,1009.59
2018-10-09T05:53:55.100Z,1009.59
2018-10-09T05:54:48.026Z,1009.55
2018-10-09T05:55:48.011Z,1009.53
2018-10-09T05:56:48.004Z,1009.56
2018-10-09T05:57:48.090Z,1009.50
2018-10-09T05:58:47.991Z,1009.53
2018-10-09T05:59:47.967Z,1009.54
2018-10-09T06:00:47.965Z,1009.58
2018-10-09T06:01:47.949Z,1009.55
2018-10-09T06:02:47.981Z,1009.59
2018-10-09T06:03:47.956Z,1009.57
2018-10-09T06:04:47.921Z,1009.58
2018-10-09T06:05:47.926Z,1009.60
2018-10-09T06:06:47.896Z,1009.56
2018-10-09T06:07:47.886Z,1009.63
2018-10-09T06:08:47.875Z,1009.62
2018-10-09T06:09:47.880Z,1009.63
2018-10-09T06:10:47.851Z,1009.66
2018-10-09T06:11:47.839Z,1009.70
2018-10-09T06:12:47.826Z,1009.74
2018-10-09T06:13:47.817Z,1009.71
2018-10-09T06:14:47.830Z,1009.75
2018-10-09T06:15:47.854Z,1009.75
2018-10-09T06:16:47.801Z,1009.71
2018-10-09T06:17:47.772Z,1009.70
2018-10-09T06:18:47.761Z,1009.75
2018-10-09T06:19:47.765Z,1009.75
2018-10-09T06:20:47.740Z,1009.73
2018-10-09T06:21:47.729Z,1009.77
2018-10-09T06:22:47.770Z,1009.82
2018-10-09T06:23:47.710Z,1009.82
2018-10-09T06:24:47.741Z,1009.84
2018-10-09T06:25:47.705Z,1009.86
2018-10-09T06:26:47.678Z,1009.84
2018-10-09T06:27:47.720Z,1009.85
2018-10-09T06:28:47.663Z,1009.90
2018-10-09T06:29:47.654Z,1009.87
2018-10-09T06:30:47.631Z,1009.92
2018-10-09T06:31:47.623Z,1009.94
2018-10-09T06:32:47.607Z,1009.90
2018-10-09T06:33:47.620Z,1009.89
2018-10-09T06:34:47.627Z,1009.91
2018-10-09T06:35:47.575Z,1009.86
2018-10-09T06:36:47.610Z,1009.86
2018-10-09T06:37:47.580Z,1009.84
2018-10-09T06:38:47.543Z,1009.83
2018-10-09T06:39:47.552Z,1009.81
2018-10-09T06:40:47.596Z,1009.82
2018-10-09T06:41:47.508Z,1009.83
2018-10-09T06:42:47.539Z,1009.80
2018-10-09T06:43:47.485Z,1009.82
2018-10-09T06:44:47.484Z,1009.83
2018-10-09T06:45:55.004Z,1009.81
2018-10-09T06:46:47.439Z,1009.83
2018-10-09T06:47:47.546Z,1009.82
2018-10-09T06:48:47.418Z,1009.81
2018-10-09T06:49:47.419Z,1009.83
2018-10-09T06:50:47.395Z,1009.82
2018-10-09T06:51:47.386Z,1009.84
2018-10-09T06:52:47.373Z,1009.86
2018-10-09T06:53:47.571Z,1009.82
2018-10-09T06:54:47.376Z,1009.87
2018-10-09T06:55:47.365Z,1009.85
2018-10-09T06:56:47.331Z,1009.86
2018-10-09T06:57:47.318Z,1009.86
2018-10-09T06:58:47.311Z,1009.85
2018-10-09T06:59:47.319Z,1009.87
2018-10-09T07:00:47.331Z,1009.89
2018-10-09T07:01:47.277Z,1009.98
2018-10-09T07:02:47.267Z,1009.96
2018-10-09T07:03:47.255Z,1010.02
2018-10-09T07:04:47.241Z,1010.05
2018-10-09T07:05:47.245Z,1010.07
2018-10-09T07:06:47.221Z,1009.99
2018-10-09T07:07:47.209Z,1010.05
2018-10-09T07:08:47.196Z,1010.01
2018-10-09T07:09:47.201Z,1010.07
2018-10-09T07:10:47.211Z,1010.08
2018-10-09T07:11:47.163Z,1010.05
2018-10-09T07:12:47.157Z,1010.11
2018-10-09T07:13:47.146Z,1010.12
2018-10-09T07:14:47.128Z,1010.16
2018-10-09T07:15:47.134Z,1010.11
2018-10-09T07:17:08.210Z,1010.09
2018-10-09T07:17:47.113Z,1010.09
2018-10-09T07:18:47.087Z,1010.10
2018-10-09T07:19:47.079Z,1010.14
2018-10-09T07:20:47.082Z,1010.14
2018-10-09T07:21:47.053Z,1010.18
2018-10-09T07:22:47.039Z,1010.24
2018-10-09T07:23:47.035Z,1010.25
2018-10-09T07:24:47.017Z,1010.24
2018-10-09T07:25:47.022Z,1010.29
2018-10-09T07:26:46.998Z,1010.33
2018-10-09T07:27:46.990Z,1010.37
2018-10-09T07:28:46.974Z,1010.39
2018-10-09T07:29:46.965Z,1010.41
2018-10-09T07:30:46.977Z,1010.41
2018-10-09T07:31:46.942Z,1010.42
2018-10-09T07:32:46.937Z,1010.39
2018-10-09T07:33:46.916Z,1010.42
2018-10-09T07:34:46.920Z,1010.42
2018-10-09T07:35:46.906Z,1010.42
2018-10-09T07:36:46.889Z,1010.40
2018-10-09T07:37:46.874Z,1010.42
2018-10-09T07:38:46.869Z,1010.44
2018-10-09T07:39:46.853Z,1010.42
2018-10-09T07:40:46.850Z,1010.45
2018-10-09T07:41:46.832Z,1010.41
2018-10-09T07:42:46.815Z,1010.43
2018-10-09T07:43:46.838Z,1010.46
2018-10-09T07:44:46.799Z,1010.40
2018-10-09T07:45:46.819Z,1010.44
2018-10-09T07:46:46.780Z,1010.39
2018-10-09T07:47:46.761Z,1010.43
2018-10-09T07:48:46.750Z,1010.43
2018-10-09T07:49:46.739Z,1010.44
2018-10-09T07:50:53.915Z,1010.40
2018-10-09T07:51:46.718Z,1010.40
2018-10-09T07:52:46.730Z,1010.41
2018-10-09T07:53:46.697Z,1010.45
2018-10-09T07:54:46.695Z,1010.47
2018-10-09T07:55:46.772Z,1010.48
2018-10-09T07:56:46.663Z,1010.45
2018-10-09T07:57:46.660Z,1010.48
2018-10-09T07:58:46.807Z,1010.51
2018-10-09T07:59:46.649Z,1010.53
2018-10-09T08:00:46.637Z,1010.53
2018-10-09T08:01:46.612Z,1010.57
2018-10-09T08:02:46.600Z,1010.57
2018-10-09T08:03:46.585Z,1010.54
2018-10-09T08:04:46.621Z,1010.55
2018-10-09T08:05:46.578Z,1010.57
2018-10-09T08:06:46.561Z,1010.56
2018-10-09T08:07:46.553Z,1010.60
2018-10-09T08:08:46.532Z,1010.55
2018-10-09T08:09:46.519Z,1010.55
2018-10-09T08:10:46.542Z,1010.47
2018-10-09T08:11:46.498Z,1010.49
2018-10-09T08:12:46.527Z,1010.50
2018-10-09T08:13:46.550Z,1010.48
2018-10-09T08:14:46.464Z,1010.52
2018-10-09T08:15:46.450Z,1010.48
2018-10-09T08:16:46.495Z,1010.50
2018-10-09T08:17:46.435Z,1010.47
2018-10-09T08:18:46.420Z,1010.54
2018-10-09T08:19:46.416Z,1010.54
2018-10-09T08:20:46.398Z,1010.56
2018-10-09T08:21:46.404Z,1010.58
2018-10-09T08:22:46.408Z,1010.59
2018-10-09T08:23:46.365Z,1010.59
2018-10-09T08:24:46.354Z,1010.59
2018-10-09T08:25:46.347Z,1010.57
2018-10-09T08:26:46.352Z,1010.55
2018-10-09T08:27:46.336Z,1010.54
2018-10-09T08:28:46.316Z,1010.51
2018-10-09T08:29:46.303Z,1010.51
2018-10-09T08:30:46.285Z,1010.51
2018-10-09T08:31:46.293Z,1010.49
2018-10-09T08:32:46.263Z,1010.53
2018-10-09T08:33:46.291Z,1010.54
2018-10-09T08:34:46.245Z,1010.54
2018-10-09T08:35:46.227Z,1010.54
2018-10-09T08:36:46.231Z,1010.51
2018-10-09T08:37:46.205Z,1010.47
2018-10-09T08:38:46.195Z,1010.48
2018-10-09T08:39:46.193Z,1010.48
2018-10-09T08:40:46.173Z,1010.52
2018-10-09T08:41:46.176Z,1010.47
2018-10-09T08:42:46.151Z,1010.44
2018-10-09T08:43:46.139Z,1010.45
2018-10-09T08:44:46.129Z,1010.46
2018-10-09T08:45:46.118Z,1010.46
2018-10-09T08:46:46.121Z,1010.47
2018-10-09T08:47:46.091Z,1010.41
2018-10-09T08:48:46.094Z,1010.43
2018-10-09T08:49:46.076Z,1010.44
2018-10-09T08:50:46.059Z,1010.48
2018-10-09T08:51:46.072Z,1010.47
2018-10-09T08:52:46.037Z,1010.47
2018-10-09T08:53:46.026Z,1010.48
2018-10-09T08:54:46.034Z,1010.46
2018-10-09T08:55:46.008Z,1010.48
2018-10-09T08:56:46.007Z,1010.50
2018-10-09T08:57:45.984Z,1010.52
2018-10-09T08:58:45.969Z,1010.49
2018-10-09T08:59:45.961Z,1010.50
2018-10-09T09:00:45.948Z,1010.45
2018-10-09T09:01:45.958Z,1010.45
2018-10-09T09:02:45.989Z,1010.42
2018-10-09T09:03:45.917Z,1010.42
2018-10-09T09:04:45.912Z,1010.39
2018-10-09T09:05:45.897Z,1010.41
2018-10-09T09:06:45.896Z,1010.35
2018-10-09T09:07:45.870Z,1010.41
2018-10-09T09:08:45.860Z,1010.42
2018-10-09T09:09:45.908Z,1010.45
2018-10-09T09:10:45.837Z,1010.52
2018-10-09T09:11:45.841Z,1010.52
2018-10-09T09:12:45.815Z,1010.57
2018-10-09T09:13:45.811Z,1010.59
2018-10-09T09:14:45.821Z,1010.52
2018-10-09T09:15:45.782Z,1010.52
2018-10-09T09:16:45.784Z,1010.47
2018-10-09T09:17:45.763Z,1010.47
2018-10-09T09:18:45.749Z,1010.46
2018-10-09T09:19:45.761Z,1010.45
2018-10-09T09:20:45.866Z,1010.50
2018-10-09T09:21:45.736Z,1010.48
2018-10-09T09:22:45.741Z,1010.52
2018-10-09T09:23:45.695Z,1010.54
2018-10-09T09:24:45.685Z,1010.54
2018-10-09T09:25:45.669Z,1010.63
2018-10-09T09:26:45.813Z,1010.60
2018-10-09T09:27:45.730Z,1010.55
2018-10-09T09:28:45.662Z,1010.52
2018-10-09T09:29:45.627Z,1010.55
2018-10-09T09:30:45.612Z,1010.54
2018-10-09T09:31:45.661Z,1010.57
2018-10-09T09:32:45.603Z,1010.54
2018-10-09T09:33:45.590Z,1010.55
2018-10-09T09:34:45.574Z,1010.54
2018-10-09T09:35:45.553Z,1010.57
2018-10-09T09:36:45.545Z,1010.61
2018-10-09T09:37:45.553Z,1010.63
2018-10-09T09:38:45.527Z,1010.62
2018-10-09T09:39:45.515Z,1010.62
2018-10-09T09:40:45.499Z,1010.63
2018-10-09T09:41:45.496Z,1010.63
2018-10-09T09:42:45.493Z,1010.58
2018-10-09T09:43:45.466Z,1010.56
2018-10-09T09:44:45.477Z,1010.57
2018-10-09T09:45:45.525Z,1010.55
2018-10-09T09:46:45.428Z,1010.55
2018-10-09T09:47:45.438Z,1010.55
2018-10-09T09:48:45.415Z,1010.54
2018-10-09T09:49:45.400Z,1010.51
2018-10-09T09:50:45.388Z,1010.53
2018-10-09T09:51:45.376Z,1010.53
2018-10-09T09:52:45.379Z,1010.49
2018-10-09T09:53:45.356Z,1010.48
2018-10-09T09:54:45.345Z,1010.51
2018-10-09T09:55:45.332Z,1010.48
2018-10-09T09:56:45.325Z,1010.46
2018-10-09T09:57:45.378Z,1010.46
2018-10-09T09:58:45.477Z,1010.46
2018-10-09T09:59:45.286Z,1010.50
2018-10-09T10:00:45.277Z,1010.50
2018-10-09T10:01:45.394Z,1010.53
2018-10-09T10:02:45.270Z,1010.53
2018-10-09T10:03:45.386Z,1010.53
2018-10-09T10:04:45.235Z,1010.53
2018-10-09T10:05:45.225Z,1010.52
2018-10-09T10:06:45.249Z,1010.53
2018-10-09T10:07:45.227Z,1010.47
2018-10-09T10:08:45.186Z,1010.46
2018-10-09T10:09:45.176Z,1010.49
2018-10-09T10:10:45.161Z,1010.39
2018-10-09T10:11:45.160Z,1010.42
2018-10-09T10:12:45.164Z,1010.44
2018-10-09T10:13:45.134Z,1010.40
2018-10-09T10:14:45.120Z,1010.40
2018-10-09T10:15:45.162Z,1010.39
2018-10-09T10:16:45.096Z,1010.42
2018-10-09T10:17:45.098Z,1010.40
2018-10-09T10:18:45.079Z,1010.37
2018-10-09T10:19:45.062Z,1010.36
2018-10-09T10:20:45.049Z,1010.35
2018-10-09T10:21:45.040Z,1010.34
2018-10-09T10:22:45.043Z,1010.27
2018-10-09T10:23:45.019Z,1010.36
2018-10-09T10:24:45.017Z,1010.37
2018-10-09T10:25:45.000Z,1010.34
2018-10-09T10:26:44.987Z,1010.30
2018-10-09T10:27:44.988Z,1010.31
2018-10-09T10:28:44.963Z,1010.25
2018-10-09T10:29:44.967Z,1010.26
2018-10-09T10:30:44.944Z,1010.25
2018-10-09T10:31:44.930Z,1010.25
2018-10-09T10:32:44.931Z,1010.23
2018-10-09T10:33:44.928Z,1010.25
2018-10-09T10:34:44.897Z,1010.22
2018-10-09T10:35:44.973Z,1010.25
2018-10-09T10:36:44.988Z,1010.18
2018-10-09T10:37:44.879Z,1010.20
2018-10-09T10:38:44.851Z,1010.23
2018-10-09T10:39:44.841Z,1010.22
2018-10-09T10:40:44.829Z,1010.20
2018-10-09T10:41:44.847Z,1010.19
2018-10-09T10:42:44.833Z,1010.20
2018-10-09T10:43:44.797Z,1010.15
2018-10-09T10:44:44.787Z,1010.10
2018-10-09T10:45:44.773Z,1010.12
2018-10-09T10:46:52.405Z,1010.14
2018-10-09T10:47:44.751Z,1010.11
2018-10-09T10:48:44.754Z,1010.11
2018-10-09T10:49:44.724Z,1010.14
2018-10-09T10:50:44.713Z,1010.16
2018-10-09T10:51:44.703Z,1010.12
2018-10-09T10:52:44.694Z,1010.10
2018-10-09T10:53:44.697Z,1010.09
2018-10-09T10:54:44.673Z,1010.08
2018-10-09T10:55:44.658Z,1010.05
2018-10-09T10:56:44.646Z,1010.02
2018-10-09T10:57:44.639Z,1009.99
2018-10-09T10:58:44.641Z,1010.02
2018-10-09T10:59:44.614Z,1010.02
2018-10-09T11:00:44.607Z,1010.04
2018-10-09T11:01:44.670Z,1010.01
2018-10-09T11:02:44.607Z,1010.01
2018-10-09T11:03:44.589Z,1009.99
2018-10-09T11:04:44.566Z,1010.01
2018-10-09T11:05:44.551Z,1010.04
2018-10-09T11:06:44.538Z,1010.02
2018-10-09T11:07:44.554Z,1009.99
2018-10-09T11:08:44.531Z,1010.03
2018-10-09T11:09:44.503Z,1010.04
2018-10-09T11:10:44.496Z,1010.07
2018-10-09T11:11:44.482Z,1010.02
2018-10-09T11:12:44.473Z,1009.97
2018-10-09T11:13:44.475Z,1009.97
2018-10-09T11:14:44.494Z,1010.00
2018-10-09T11:15:44.439Z,1009.94
2018-10-09T11:16:44.425Z,1009.93
2018-10-09T11:17:44.414Z,1009.92
2018-10-09T11:18:44.423Z,1009.90
2018-10-09T11:19:44.395Z,1009.88
2018-10-09T11:20:44.381Z,1009.86
2018-10-09T11:21:44.468Z,1009.88
2018-10-09T11:22:44.361Z,1009.89
2018-10-09T11:23:44.362Z,1009.89
2018-10-09T11:24:44.339Z,1009.90
2018-10-09T11:25:44.326Z,1009.94
2018-10-09T11:26:44.318Z,1009.96
2018-10-09T11:27:44.306Z,1009.94
2018-10-09T11:28:44.309Z,1009.94
2018-10-09T11:29:44.283Z,1009.97
2018-10-09T11:30:44.272Z,1009.94
2018-10-09T11:31:44.261Z,1009.90
2018-10-09T11:32:44.248Z,1009.87
2018-10-09T11:33:44.253Z,1009.86
2018-10-09T11:34:44.230Z,1009.83
2018-10-09T11:35:44.218Z,1009.80
2018-10-09T11:36:44.206Z,1009.86
2018-10-09T11:37:44.193Z,1009.81
2018-10-09T11:38:44.199Z,1009.79
2018-10-09T11:39:44.172Z,1009.83
2018-10-09T11:40:44.160Z,1009.72
2018-10-09T11:41:44.153Z,1009.77
2018-10-09T11:42:44.225Z,1009.76
2018-10-09T11:43:44.140Z,1009.78
2018-10-09T11:44:44.122Z,1009.75
2018-10-09T11:45:44.104Z,1009.73
2018-10-09T11:46:44.094Z,1009.71
2018-10-09T11:47:44.088Z,1009.71
2018-10-09T11:48:44.089Z,1009.67
2018-10-09T11:49:44.059Z,1009.66
2018-10-09T11:50:44.054Z,1009.65
2018-10-09T11:51:44.039Z,1009.66
2018-10-09T11:52:44.027Z,1009.65
2018-10-09T11:53:44.029Z,1009.66
2018-10-09T11:54:44.011Z,1009.67
2018-10-09T11:55:44.000Z,1009.66
2018-10-09T11:56:43.984Z,1009.66
2018-10-09T11:57:43.973Z,1009.63
2018-10-09T11:58:44.066Z,1009.64
2018-10-09T11:59:43.951Z,1009.58
2018-10-09T12:00:43.938Z,1009.55
2018-10-09T12:01:43.927Z,1009.59
2018-10-09T12:02:43.937Z,1009.57
2018-10-09T12:03:43.905Z,1009.57
2018-10-09T12:04:43.907Z,1009.59
2018-10-09T12:05:43.903Z,1009.56